Time;durP1;ratioP1;P1;durP2;ratioP2;P2;SDS_P1;SDS_P2;PMS_P1;PMS_P2;Temp;Humidity;BMP_temperature;BMP_pressure;BME280_temperature;BME280_humidity;BME280_pressure;Samples;Min_cycle;Max_cycle;Signal;HPM_P1;HPM_P2
2023/09/01 00:01:29;;;;;;;3.50;2.70;;;;;;;;;;5031290;28;20450;-59
2023/09/01 00:03:57;;;;;;;4.83;3.07;;;;;;;;;;5030173;28;20537;-60
2023/09/01 00:06:25;;;;;;;5.40;2.97;;;;;;;;;;5031678;28;20442;-58
2023/09/01 00:08:52;;;;;;;4.13;2.80;;;;;;;;;;5040562;28;20520;-58
2023/09/01 00:11:20;;;;;;;4.20;2.97;;;;;;;;;;5033050;28;20725;-58
2023/09/01 00:13:47;;;;;;;4.77;3.50;;;;;;;;;;5029224;28;20442;-60
2023/09/01 00:16:15;;;;;;;3.93;3.47;;;;;;;;;;5030781;28;20445;-57
2023/09/01 00:18:42;;;;;;;4.63;3.30;;;;;;;;;;5028398;28;20502;-58
2023/09/01 00:21:11;;;;;;;5.60;3.17;;;;;;;;;;5029385;28;20486;-57
2023/09/01 00:23:38;;;;;;;3.93;3.30;;;;;;;;;;5045167;28;20469;-58
2023/09/01 00:26:05;;;;;;;4.70;3.70;;;;;;;;;;5049212;28;20807;-58
2023/09/01 00:28:32;;;;;;;4.57;2.80;;;;;;;;;;5030950;28;20490;-58
2023/09/01 00:31:00;;;;;;;3.80;3.20;;;;;;;;;;5030945;28;20458;-58
2023/09/01 00:33:29;;;;;;;4.47;3.10;;;;;;;;;;5030084;28;20817;-59
2023/09/01 00:35:57;;;;;;;4.07;2.83;;;;;;;;;;5030209;28;21032;-59
2023/09/01 00:38:25;;;;;;;4.13;3.10;;;;;;;;;;5029399;28;21168;-58
2023/09/01 00:40:53;;;;;;;3.80;3.13;;;;;;;;;;5031211;28;20884;-58
2023/09/01 00:43:20;;;;;;;6.77;3.27;;;;;;;;;;5042780;28;20559;-58
2023/09/01 00:45:47;;;;;;;4.93;3.67;;;;;;;;;;5035814;28;20517;-59
2023/09/01 00:48:14;;;;;;;3.70;3.30;;;;;;;;;;5048333;28;20496;-58
2023/09/01 00:50:42;;;;;;;5.33;3.37;;;;;;;;;;5049177;28;20590;-58
2023/09/01 00:53:10;;;;;;;3.50;2.90;;;;;;;;;;5050186;28;20499;-58
2023/09/01 00:55:39;;;;;;;7.10;3.37;;;;;;;;;;5037282;28;20500;-59
2023/09/01 00:58:06;;;;;;;5.57;3.37;;;;;;;;;;5045857;28;20544;-58
2023/09/01 01:00:34;;;;;;;4.67;3.33;;;;;;;;;;5047233;28;20811;-59
2023/09/01 01:03:02;;;;;;;4.77;3.23;;;;;;;;;;5030739;28;20460;-58
2023/09/01 01:05:33;;;;;;;5.20;2.80;;;;;;;;;;5030615;28;20438;-57
2023/09/01 01:08:05;;;;;;;4.00;2.70;;;;;;;;;;5028162;28;20544;-59
2023/09/01 01:10:36;;;;;;;3.53;3.10;;;;;;;;;;5037305;28;20532;-58
2023/09/01 01:13:10;;;;;;;3.77;3.37;;;;;;;;;;5054671;28;20520;-59
2023/09/01 01:15:38;;;;;;;3.93;3.27;;;;;;;;;;5040651;28;20481;-59
2023/09/01 01:18:07;;;;;;;4.67;3.13;;;;;;;;;;5034344;28;20545;-58
2023/09/01 01:20:38;;;;;;;3.10;2.70;;;;;;;;;;5034717;28;20462;-58
2023/09/01 01:23:10;;;;;;;3.60;2.60;;;;;;;;;;5034095;28;20933;-59
2023/09/01 01:25:38;;;;;;;3.40;2.67;;;;;;;;;;5034307;28;20492;-58
2023/09/01 01:28:08;;;;;;;3.80;3.20;;;;;;;;;;5049890;28;20515;-57
2023/09/01 01:30:36;;;;;;;5.17;3.07;;;;;;;;;;5054229;28;20502;-60
2023/09/01 01:33:03;;;;;;;6.20;3.20;;;;;;;;;;5054055;28;20468;-60
2023/09/01 01:35:33;;;;;;;3.20;2.67;;;;;;;;;;5053940;28;20526;-58
2023/09/01 01:38:05;;;;;;;3.90;2.83;;;;;;;;;;5035469;28;20548;-58
2023/09/01 01:40:33;;;;;;;3.00;2.50;;;;;;;;;;5031895;28;20469;-60
2023/09/01 01:43:03;;;;;;;3.67;2.70;;;;;;;;;;5032659;28;20450;-59
2023/09/01 01:45:32;;;;;;;3.83;2.73;;;;;;;;;;5032264;28;20493;-59
2023/09/01 01:47:59;;;;;;;5.53;3.03;;;;;;;;;;5032080;28;20478;-58
2023/09/01 01:50:27;;;;;;;4.03;2.70;;;;;;;;;;5032953;28;20446;-60
2023/09/01 01:52:54;;;;;;;3.60;2.67;;;;;;;;;;5045017;28;20449;-59
2023/09/01 01:55:21;;;;;;;3.40;2.43;;;;;;;;;;5052116;28;20878;-59
2023/09/01 01:57:50;;;;;;;3.50;3.00;;;;;;;;;;5052814;28;20541;-60
2023/09/01 02:00:18;;;;;;;4.00;3.30;;;;;;;;;;5032228;28;20532;-59
2023/09/01 02:02:46;;;;;;;3.80;3.10;;;;;;;;;;5032725;28;21007;-59
2023/09/01 02:05:14;;;;;;;3.10;2.47;;;;;;;;;;5032584;28;20434;-58
2023/09/01 02:07:41;;;;;;;5.03;3.20;;;;;;;;;;5032889;28;20453;-58
2023/09/01 02:10:08;;;;;;;4.47;2.50;;;;;;;;;;5032385;28;20473;-58
2023/09/01 02:12:36;;;;;;;4.57;3.47;;;;;;;;;;5032813;28;20450;-58
2023/09/01 02:15:08;;;;;;;4.70;3.40;;;;;;;;;;5032442;28;20496;-60
2023/09/01 02:17:36;;;;;;;4.50;2.77;;;;;;;;;;5032643;28;20438;-58
2023/09/01 02:20:11;;;;;;;4.60;2.87;;;;;;;;;;5032418;28;20482;-57
2023/09/01 02:22:38;;;;;;;3.30;2.50;;;;;;;;;;5031710;28;20887;-60
2023/09/01 02:25:08;;;;;;;3.40;3.00;;;;;;;;;;5031875;28;21015;-57
2023/09/01 02:27:35;;;;;;;3.63;2.70;;;;;;;;;;5032385;28;20445;-58
2023/09/01 02:30:03;;;;;;;3.60;2.63;;;;;;;;;;5030523;28;21017;-59
2023/09/01 02:32:32;;;;;;;3.80;2.80;;;;;;;;;;5031715;28;20453;-58
2023/09/01 02:35:00;;;;;;;4.40;3.17;;;;;;;;;;5032179;28;20438;-58
2023/09/01 02:37:29;;;;;;;4.67;2.73;;;;;;;;;;5031969;28;20949;-58
2023/09/01 02:39:56;;;;;;;4.03;2.67;;;;;;;;;;5031876;28;21058;-58
2023/09/01 02:42:23;;;;;;;4.37;2.90;;;;;;;;;;5031837;28;20434;-59
2023/09/01 02:44:51;;;;;;;4.60;3.07;;;;;;;;;;5031851;28;20522;-59
2023/09/01 02:47:19;;;;;;;4.40;3.13;;;;;;;;;;5031791;28;20457;-59
2023/09/01 02:49:48;;;;;;;3.87;2.67;;;;;;;;;;5086276;22;20534;-79
2023/09/01 02:52:15;;;;;;;4.50;2.37;;;;;;;;;;5081427;28;20409;-79
2023/09/01 02:54:43;;;;;;;2.90;2.40;;;;;;;;;;5080467;28;20433;-79
2023/09/01 02:57:10;;;;;;;2.83;2.23;;;;;;;;;;5080079;28;20409;-79
2023/09/01 02:59:38;;;;;;;3.93;2.73;;;;;;;;;;5079753;28;20504;-78
2023/09/01 03:02:05;;;;;;;8.20;3.50;;;;;;;;;;5089901;22;20523;-54
2023/09/01 03:04:33;;;;;;;4.47;2.80;;;;;;;;;;5070886;28;20476;-56
2023/09/01 03:07:02;;;;;;;3.27;2.87;;;;;;;;;;5070936;28;20445;-58
2023/09/01 03:09:29;;;;;;;4.03;3.20;;;;;;;;;;5071619;28;20473;-57
2023/09/01 03:11:56;;;;;;;5.90;3.00;;;;;;;;;;5071335;28;20472;-56
2023/09/01 03:14:24;;;;;;;3.80;2.90;;;;;;;;;;5070999;28;20990;-56
2023/09/01 03:16:52;;;;;;;5.20;3.10;;;;;;;;;;5070480;28;20476;-58
2023/09/01 03:19:19;;;;;;;3.00;2.30;;;;;;;;;;5066434;28;20537;-57
2023/09/01 03:21:46;;;;;;;4.57;3.33;;;;;;;;;;5070601;28;20484;-57
2023/09/01 03:24:15;;;;;;;4.23;2.80;;;;;;;;;;5070852;28;20523;-57
2023/09/01 03:26:42;;;;;;;5.40;2.67;;;;;;;;;;5071093;28;20493;-54
2023/09/01 03:29:09;;;;;;;4.27;3.10;;;;;;;;;;5071494;28;20460;-54
2023/09/01 03:31:37;;;;;;;3.20;2.70;;;;;;;;;;5070749;28;21145;-56
2023/09/01 03:34:07;;;;;;;4.00;3.27;;;;;;;;;;5069650;28;20448;-57
2023/09/01 03:36:34;;;;;;;4.30;2.90;;;;;;;;;;5071555;28;20550;-57
2023/09/01 03:39:02;;;;;;;4.93;2.87;;;;;;;;;;5069760;28;20514;-57
2023/09/01 03:41:30;;;;;;;2.90;2.40;;;;;;;;;;5069894;28;20461;-56
2023/09/01 03:43:57;;;;;;;4.10;2.90;;;;;;;;;;5071156;28;20472;-57
2023/09/01 03:46:25;;;;;;;3.90;2.50;;;;;;;;;;5071253;28;20444;-57
2023/09/01 03:48:52;;;;;;;4.03;2.93;;;;;;;;;;5052870;28;20552;-57
2023/09/01 03:51:19;;;;;;;4.67;2.70;;;;;;;;;;5050817;28;20944;-54
2023/09/01 03:53:46;;;;;;;5.57;3.00;;;;;;;;;;5051613;28;20480;-55
2023/09/01 03:56:15;;;;;;;2.70;1.97;;;;;;;;;;5050016;28;20465;-54
2023/09/01 03:58:43;;;;;;;4.53;2.67;;;;;;;;;;5050778;28;20461;-54
2023/09/01 04:01:12;;;;;;;3.10;2.40;;;;;;;;;;5070812;28;20567;-54
2023/09/01 04:03:39;;;;;;;4.27;2.63;;;;;;;;;;5070623;28;20448;-55
2023/09/01 04:06:07;;;;;;;3.17;2.43;;;;;;;;;;5070407;28;20489;-55
2023/09/01 04:08:34;;;;;;;3.27;2.50;;;;;;;;;;5070397;28;20886;-55
2023/09/01 04:11:02;;;;;;;3.10;2.50;;;;;;;;;;5070578;28;20907;-55
2023/09/01 04:13:29;;;;;;;2.80;2.20;;;;;;;;;;5070450;28;20533;-54
2023/09/01 04:15:58;;;;;;;3.13;2.43;;;;;;;;;;5070628;28;20494;-56
2023/09/01 04:18:25;;;;;;;4.93;2.40;;;;;;;;;;5070109;28;20547;-57
2023/09/01 04:20:53;;;;;;;2.90;2.60;;;;;;;;;;5069596;28;20549;-56
2023/09/01 04:23:21;;;;;;;4.00;3.10;;;;;;;;;;5070505;28;20476;-55
2023/09/01 04:25:48;;;;;;;3.40;2.90;;;;;;;;;;5070049;28;20447;-55
2023/09/01 04:28:16;;;;;;;3.37;2.60;;;;;;;;;;5070212;28;20460;-55
2023/09/01 04:30:44;;;;;;;3.63;3.00;;;;;;;;;;5070491;28;20432;-54
2023/09/01 04:33:13;;;;;;;3.70;2.90;;;;;;;;;;5070434;28;20437;-54
2023/09/01 04:35:40;;;;;;;4.87;2.40;;;;;;;;;;5069779;28;20674;-57
2023/09/01 04:38:07;;;;;;;3.20;2.87;;;;;;;;;;5065306;28;20487;-58
2023/09/01 04:40:34;;;;;;;5.33;3.10;;;;;;;;;;5069932;28;20476;-57
2023/09/01 04:43:02;;;;;;;7.23;2.90;;;;;;;;;;5068659;28;20436;-58
2023/09/01 04:45:29;;;;;;;3.17;2.60;;;;;;;;;;5068168;28;20490;-54
2023/09/01 04:47:57;;;;;;;3.40;2.40;;;;;;;;;;5068603;28;20520;-54
2023/09/01 04:50:25;;;;;;;4.53;3.30;;;;;;;;;;5068988;28;20490;-54
2023/09/01 04:52:53;;;;;;;4.97;2.80;;;;;;;;;;5068547;28;20815;-55
2023/09/01 04:55:22;;;;;;;3.43;2.70;;;;;;;;;;5068403;28;20444;-54
2023/09/01 04:57:49;;;;;;;3.50;2.70;;;;;;;;;;5069594;28;20531;-55
2023/09/01 05:00:17;;;;;;;3.23;2.60;;;;;;;;;;5069774;28;20884;-54
2023/09/01 05:02:44;;;;;;;3.30;2.87;;;;;;;;;;5068387;28;20480;-54
2023/09/01 05:05:12;;;;;;;4.90;2.60;;;;;;;;;;5069003;28;20528;-55
2023/09/01 05:07:41;;;;;;;3.70;2.80;;;;;;;;;;5070020;28;20485;-56
2023/09/01 05:10:08;;;;;;;2.70;2.20;;;;;;;;;;5068709;28;20444;-54
2023/09/01 05:12:35;;;;;;;3.07;2.50;;;;;;;;;;5068472;28;20512;-55
2023/09/01 05:15:03;;;;;;;3.80;2.90;;;;;;;;;;5069981;28;20978;-54
2023/09/01 05:17:31;;;;;;;4.60;2.90;;;;;;;;;;5070104;28;20468;-54
2023/09/01 05:19:58;;;;;;;3.60;2.80;;;;;;;;;;5070404;28;20563;-54
2023/09/01 05:22:26;;;;;;;3.50;2.90;;;;;;;;;;5069727;28;20527;-54
2023/09/01 05:24:54;;;;;;;3.70;3.33;;;;;;;;;;5069983;28;20437;-54
2023/09/01 05:27:21;;;;;;;3.30;2.67;;;;;;;;;;5067033;28;20465;-54
2023/09/01 05:29:49;;;;;;;3.30;2.70;;;;;;;;;;5070472;28;20479;-54
2023/09/01 05:32:16;;;;;;;2.73;2.37;;;;;;;;;;5070283;28;20491;-57
2023/09/01 05:34:43;;;;;;;2.87;2.57;;;;;;;;;;5068723;28;20486;-54
2023/09/01 05:37:12;;;;;;;3.33;2.40;;;;;;;;;;5070063;28;20532;-55
2023/09/01 05:39:39;;;;;;;4.00;2.63;;;;;;;;;;5070308;28;20954;-55
2023/09/01 05:42:08;;;;;;;3.47;2.57;;;;;;;;;;5068065;28;20468;-55
2023/09/01 05:44:35;;;;;;;2.93;2.23;;;;;;;;;;5067709;28;20432;-56
2023/09/01 05:47:03;;;;;;;3.40;2.80;;;;;;;;;;5067801;28;20448;-55
2023/09/01 05:49:32;;;;;;;3.37;2.70;;;;;;;;;;5068444;28;20551;-54
2023/09/01 05:51:59;;;;;;;3.27;2.90;;;;;;;;;;5064832;28;20444;-55
2023/09/01 05:54:27;;;;;;;6.00;3.57;;;;;;;;;;5066703;28;20432;-54
2023/09/01 05:56:54;;;;;;;7.60;3.87;;;;;;;;;;5068320;28;20436;-54
2023/09/01 05:59:23;;;;;;;4.00;3.60;;;;;;;;;;5071982;28;21119;-54
2023/09/01 06:01:50;;;;;;;4.43;3.73;;;;;;;;;;5067270;28;20566;-55
2023/09/01 06:04:17;;;;;;;4.23;3.30;;;;;;;;;;5070947;28;20471;-55
2023/09/01 06:06:45;;;;;;;5.83;4.23;;;;;;;;;;5069236;28;20441;-57
2023/09/01 06:09:13;;;;;;;6.13;4.83;;;;;;;;;;5064020;28;20543;-57
2023/09/01 06:11:40;;;;;;;7.07;4.63;;;;;;;;;;5052211;28;20437;-58
2023/09/01 06:14:08;;;;;;;5.10;4.20;;;;;;;;;;5068108;28;20428;-57
2023/09/01 06:16:36;;;;;;;6.47;4.20;;;;;;;;;;5072698;28;20498;-58
2023/09/01 06:19:04;;;;;;;5.50;4.50;;;;;;;;;;5062565;28;20976;-56
2023/09/01 06:21:31;;;;;;;5.60;3.63;;;;;;;;;;5071835;28;20559;-58
2023/09/01 06:23:59;;;;;;;4.37;3.80;;;;;;;;;;5072161;28;20441;-58
2023/09/01 06:26:26;;;;;;;5.30;3.60;;;;;;;;;;5072190;28;20490;-57
2023/09/01 06:28:53;;;;;;;5.93;3.87;;;;;;;;;;5072117;28;20541;-57
2023/09/01 06:31:20;;;;;;;6.30;4.53;;;;;;;;;;5060231;28;20477;-56
2023/09/01 06:33:49;;;;;;;4.70;4.20;;;;;;;;;;5052254;28;20441;-56
2023/09/01 06:36:18;;;;;;;6.13;4.23;;;;;;;;;;5064815;28;20475;-57
2023/09/01 06:38:47;;;;;;;3.83;3.50;;;;;;;;;;5073004;28;20461;-58
2023/09/01 06:41:14;;;;;;;4.60;3.83;;;;;;;;;;5072580;28;20890;-57
2023/09/01 06:43:42;;;;;;;4.80;3.67;;;;;;;;;;5073306;28;20502;-57
2023/09/01 06:46:09;;;;;;;6.27;4.10;;;;;;;;;;5073145;28;20436;-58
2023/09/01 06:48:36;;;;;;;6.10;5.47;;;;;;;;;;5072869;28;20824;-55
2023/09/01 06:51:05;;;;;;;3.80;3.40;;;;;;;;;;5073055;28;20432;-54
2023/09/01 06:53:33;;;;;;;3.90;3.40;;;;;;;;;;5073005;28;20572;-55
2023/09/01 06:56:00;;;;;;;4.40;4.00;;;;;;;;;;5072920;28;20502;-54
2023/09/01 06:58:27;;;;;;;3.73;3.37;;;;;;;;;;5072828;28;20838;-54
2023/09/01 07:00:57;;;;;;;5.70;4.00;;;;;;;;;;5068747;28;20543;-55
2023/09/01 07:03:25;;;;;;;4.00;3.40;;;;;;;;;;5071705;28;20452;-56
2023/09/01 07:05:55;;;;;;;3.07;2.73;;;;;;;;;;5071899;28;20441;-55
2023/09/01 07:08:24;;;;;;;4.13;3.57;;;;;;;;;;5070972;28;20469;-55
2023/09/01 07:10:51;;;;;;;3.83;2.97;;;;;;;;;;5072531;28;20432;-54
2023/09/01 07:13:18;;;;;;;3.70;3.07;;;;;;;;;;5060179;28;20436;-54
2023/09/01 07:15:50;;;;;;;4.60;3.17;;;;;;;;;;5066233;28;20441;-54
2023/09/01 07:18:17;;;;;;;5.37;3.77;;;;;;;;;;5056976;28;21087;-56
2023/09/01 07:20:45;;;;;;;3.80;3.40;;;;;;;;;;5070839;28;20534;-56
2023/09/01 07:23:12;;;;;;;3.87;3.47;;;;;;;;;;5072426;28;20527;-55
2023/09/01 07:25:42;;;;;;;4.10;3.60;;;;;;;;;;5071940;28;21013;-54
2023/09/01 07:28:09;;;;;;;5.80;3.90;;;;;;;;;;5070039;28;20467;-54
2023/09/01 07:30:36;;;;;;;5.90;3.63;;;;;;;;;;5060162;28;20513;-55
2023/09/01 07:33:04;;;;;;;4.93;4.30;;;;;;;;;;5053980;28;20515;-54
2023/09/01 07:35:31;;;;;;;4.10;3.33;;;;;;;;;;5070332;28;20444;-54
2023/09/01 07:37:59;;;;;;;4.90;3.70;;;;;;;;;;5072101;28;20444;-54
2023/09/01 07:40:26;;;;;;;3.40;2.90;;;;;;;;;;5071196;28;20455;-56
2023/09/01 07:42:55;;;;;;;2.97;2.50;;;;;;;;;;5070250;28;20558;-53
2023/09/01 07:45:22;;;;;;;4.60;3.13;;;;;;;;;;5071878;28;20732;-54
2023/09/01 07:47:49;;;;;;;3.80;2.80;;;;;;;;;;5070681;28;20445;-55
2023/09/01 07:50:16;;;;;;;7.10;2.90;;;;;;;;;;5070791;28;20513;-55
2023/09/01 07:52:44;;;;;;;5.20;4.30;;;;;;;;;;5071208;28;20436;-55
2023/09/01 07:55:11;;;;;;;3.80;3.40;;;;;;;;;;5071610;28;20685;-55
2023/09/01 07:57:38;;;;;;;3.53;3.20;;;;;;;;;;5064318;28;20499;-54
2023/09/01 08:00:08;;;;;;;7.80;3.70;;;;;;;;;;5058976;28;21076;-54
2023/09/01 08:02:35;;;;;;;5.20;3.43;;;;;;;;;;5056156;28;20993;-58
2023/09/01 08:05:03;;;;;;;6.10;3.47;;;;;;;;;;5068686;28;20949;-56
2023/09/01 08:07:31;;;;;;;3.83;3.00;;;;;;;;;;5057571;28;20444;-54
2023/09/01 08:09:58;;;;;;;4.73;3.67;;;;;;;;;;5068694;28;20989;-56
2023/09/01 08:12:27;;;;;;;5.47;3.53;;;;;;;;;;5051599;28;20436;-57
2023/09/01 08:14:55;;;;;;;4.57;3.57;;;;;;;;;;5054777;28;20532;-57
2023/09/01 08:17:23;;;;;;;4.20;3.07;;;;;;;;;;5071293;28;20524;-57
2023/09/01 08:19:51;;;;;;;4.00;3.10;;;;;;;;;;5070789;28;21051;-57
2023/09/01 08:22:18;;;;;;;6.57;3.10;;;;;;;;;;5070883;28;20839;-57
2023/09/01 08:24:45;;;;;;;3.37;2.77;;;;;;;;;;5071047;28;21012;-57
2023/09/01 08:27:13;;;;;;;5.40;3.30;;;;;;;;;;5071297;28;20443;-58
2023/09/01 08:29:41;;;;;;;3.20;2.63;;;;;;;;;;5070274;28;21014;-53
2023/09/01 08:32:10;;;;;;;3.37;3.00;;;;;;;;;;5070610;28;20820;-54
2023/09/01 08:34:38;;;;;;;4.30;3.90;;;;;;;;;;5071185;28;20436;-54
2023/09/01 08:37:06;;;;;;;3.90;2.80;;;;;;;;;;5071541;28;20440;-54
2023/09/01 08:39:34;;;;;;;3.53;2.70;;;;;;;;;;5071039;28;20459;-54
2023/09/01 08:42:01;;;;;;;4.90;3.47;;;;;;;;;;5070945;28;20575;-54
2023/09/01 08:44:29;;;;;;;3.30;3.00;;;;;;;;;;5070870;28;20552;-55
2023/09/01 08:46:57;;;;;;;3.90;2.93;;;;;;;;;;5071007;28;20490;-54
2023/09/01 08:49:26;;;;;;;3.97;2.93;;;;;;;;;;5085578;22;20550;-82
2023/09/01 08:51:56;;;;;;;4.33;3.63;;;;;;;;;;5051933;28;20789;-82
2023/09/01 08:54:24;;;;;;;3.73;2.90;;;;;;;;;;5051914;28;20476;-82
2023/09/01 08:56:51;;;;;;;4.57;3.73;;;;;;;;;;5052158;28;20429;-82
2023/09/01 08:59:19;;;;;;;3.77;3.20;;;;;;;;;;5051568;28;20622;-82
2023/09/01 09:01:48;;;;;;;5.30;3.10;;;;;;;;;;5051512;28;20487;-82
2023/09/01 09:04:15;;;;;;;4.10;3.20;;;;;;;;;;5051837;28;20544;-82
2023/09/01 09:06:43;;;;;;;3.10;2.80;;;;;;;;;;5052098;28;20430;-82
2023/09/01 09:09:14;;;;;;;4.17;2.70;;;;;;;;;;5052588;28;20433;-82
2023/09/01 09:11:55;;;;;;;3.03;2.63;;;;;;;;;;5051961;28;20487;-82
2023/09/01 09:14:22;;;;;;;3.63;2.90;;;;;;;;;;5051615;28;21045;-82
2023/09/01 09:16:52;;;;;;;3.50;3.20;;;;;;;;;;5051938;28;20465;-82
2023/09/01 09:19:20;;;;;;;3.10;2.63;;;;;;;;;;5051959;28;20477;-82
2023/09/01 09:21:47;;;;;;;3.70;2.77;;;;;;;;;;5051718;28;21059;-82
2023/09/01 09:24:16;;;;;;;3.57;2.90;;;;;;;;;;5052227;28;20603;-82
2023/09/01 09:26:43;;;;;;;3.10;2.43;;;;;;;;;;5051816;28;20521;-82
2023/09/01 09:29:11;;;;;;;4.63;3.30;;;;;;;;;;5051697;28;20499;-83
2023/09/01 09:31:40;;;;;;;3.90;3.10;;;;;;;;;;5055251;28;20450;-82
2023/09/01 09:34:17;;;;;;;5.07;3.47;;;;;;;;;;5056121;28;20837;-82
2023/09/01 09:36:44;;;;;;;3.60;2.90;;;;;;;;;;5055873;28;20437;-82
2023/09/01 09:39:26;;;;;;;3.60;3.27;;;;;;;;;;5056269;28;20469;-82
2023/09/01 09:41:53;;;;;;;4.90;3.47;;;;;;;;;;5056017;28;20946;-83
2023/09/01 09:44:24;;;;;;;3.47;3.17;;;;;;;;;;5055753;28;20493;-82
2023/09/01 09:46:51;;;;;;;3.80;2.87;;;;;;;;;;5056432;28;20950;-82
2023/09/01 09:49:19;;;;;;;4.20;3.10;;;;;;;;;;5055842;28;20487;-82
2023/09/01 09:51:50;;;;;;;3.90;3.50;;;;;;;;;;5073289;28;20429;-82
2023/09/01 09:54:20;;;;;;;4.23;3.67;;;;;;;;;;5057601;28;20457;-82
2023/09/01 09:56:49;;;;;;;4.33;2.90;;;;;;;;;;5055219;28;20481;-82
2023/09/01 09:59:19;;;;;;;6.20;3.30;;;;;;;;;;5055454;28;20864;-82
2023/09/01 10:01:47;;;;;;;4.33;3.60;;;;;;;;;;5055075;28;20507;-82
2023/09/01 10:04:14;;;;;;;3.93;3.10;;;;;;;;;;5055784;28;20493;-82
2023/09/01 10:06:42;;;;;;;5.87;3.10;;;;;;;;;;5055783;28;20539;-83
2023/09/01 10:09:11;;;;;;;4.30;3.23;;;;;;;;;;5055829;28;20446;-82
2023/09/01 10:11:38;;;;;;;3.77;3.37;;;;;;;;;;5055143;28;20484;-83
2023/09/01 10:14:07;;;;;;;4.73;3.50;;;;;;;;;;5054901;28;20453;-82
2023/09/01 10:16:34;;;;;;;4.50;3.20;;;;;;;;;;5055667;28;20581;-82
2023/09/01 10:19:01;;;;;;;4.10;3.20;;;;;;;;;;5055422;28;20503;-82
2023/09/01 10:21:29;;;;;;;4.27;3.30;;;;;;;;;;5055393;28;20538;-82
2023/09/01 10:23:56;;;;;;;4.50;3.60;;;;;;;;;;5055593;28;20453;-82
2023/09/01 10:26:28;;;;;;;4.13;3.50;;;;;;;;;;5055629;28;20520;-82
2023/09/01 10:28:56;;;;;;;4.87;3.80;;;;;;;;;;5055038;28;20437;-82
2023/09/01 10:31:25;;;;;;;4.33;3.20;;;;;;;;;;5051599;28;20490;-82
2023/09/01 10:34:09;;;;;;;3.53;2.90;;;;;;;;;;5055490;28;20453;-82
2023/09/01 10:36:36;;;;;;;3.80;2.50;;;;;;;;;;5053019;28;20524;-82
2023/09/01 10:39:04;;;;;;;3.87;2.57;;;;;;;;;;5055397;28;20465;-83
2023/09/01 10:41:47;;;;;;;4.33;2.70;;;;;;;;;;5054731;28;20508;-83
2023/09/01 10:44:15;;;;;;;3.73;3.43;;;;;;;;;;5052073;28;20552;-82
2023/09/01 10:46:43;;;;;;;4.20;3.27;;;;;;;;;;5053577;28;20442;-82
2023/09/01 10:49:12;;;;;;;5.57;3.50;;;;;;;;;;5050466;28;20973;-82
2023/09/01 10:51:40;;;;;;;4.13;3.10;;;;;;;;;;5052497;28;20449;-82
2023/09/01 10:54:28;;;;;;;3.57;3.17;;;;;;;;;;5051451;28;21067;-82
2023/09/01 10:56:57;;;;;;;3.53;3.00;;;;;;;;;;5050196;28;20445;-82
2023/09/01 10:59:29;;;;;;;3.67;2.73;;;;;;;;;;5053598;28;20438;-82
2023/09/01 11:01:57;;;;;;;3.60;2.77;;;;;;;;;;5053324;28;20560;-82
2023/09/01 11:04:32;;;;;;;3.03;2.33;;;;;;;;;;5052922;28;20492;-82
2023/09/01 11:07:04;;;;;;;3.60;3.03;;;;;;;;;;5053932;28;20479;-82
2023/09/01 11:09:56;;;;;;;5.50;3.10;;;;;;;;;;5054624;28;20907;-82
2023/09/01 11:12:33;;;;;;;3.80;2.77;;;;;;;;;;5054100;28;20861;-82
2023/09/01 11:15:01;;;;;;;5.87;3.00;;;;;;;;;;5053368;28;20469;-82
2023/09/01 11:17:45;;;;;;;2.80;2.40;;;;;;;;;;5053461;28;20449;-82
2023/09/01 11:20:16;;;;;;;3.67;2.87;;;;;;;;;;5053771;28;20452;-82
2023/09/01 11:22:43;;;;;;;3.50;2.53;;;;;;;;;;5053292;28;20728;-83
2023/09/01 11:25:13;;;;;;;3.30;2.43;;;;;;;;;;5069623;28;20428;-82
2023/09/01 11:27:43;;;;;;;3.53;2.67;;;;;;;;;;5058903;28;20774;-82
2023/09/01 11:30:11;;;;;;;3.30;2.50;;;;;;;;;;5052683;28;20473;-82
2023/09/01 11:32:38;;;;;;;3.20;2.53;;;;;;;;;;5052861;28;20549;-82
2023/09/01 11:35:09;;;;;;;2.50;2.30;;;;;;;;;;5052947;28;20884;-82
2023/09/01 11:37:40;;;;;;;3.57;2.70;;;;;;;;;;5053453;28;20537;-82
2023/09/01 11:40:09;;;;;;;2.93;2.60;;;;;;;;;;5052537;28;21011;-82
2023/09/01 11:42:37;;;;;;;4.00;2.80;;;;;;;;;;5052972;28;20544;-82
2023/09/01 11:45:06;;;;;;;3.10;2.77;;;;;;;;;;5053179;28;20500;-82
2023/09/01 11:47:33;;;;;;;3.53;3.07;;;;;;;;;;5052794;28;20528;-82
2023/09/01 11:50:00;;;;;;;4.17;3.20;;;;;;;;;;5053033;28;20473;-82
2023/09/01 11:52:29;;;;;;;5.10;2.70;;;;;;;;;;5052561;28;20500;-82
2023/09/01 11:54:57;;;;;;;3.70;3.00;;;;;;;;;;5052520;28;20465;-82
2023/09/01 11:57:24;;;;;;;4.27;2.83;;;;;;;;;;5053286;28;20461;-82
2023/09/01 11:59:52;;;;;;;3.10;2.43;;;;;;;;;;5052909;28;20441;-82
2023/09/01 12:02:20;;;;;;;2.90;2.57;;;;;;;;;;5052856;28;20477;-82
2023/09/01 12:04:48;;;;;;;4.93;2.90;;;;;;;;;;5053035;28;20441;-82
2023/09/01 12:07:26;;;;;;;3.10;2.70;;;;;;;;;;5051361;28;20906;-82
2023/09/01 12:09:55;;;;;;;4.10;3.00;;;;;;;;;;5050360;28;20528;-82
2023/09/01 12:12:23;;;;;;;3.50;2.80;;;;;;;;;;5051056;28;20434;-82
2023/09/01 12:14:50;;;;;;;3.23;2.57;;;;;;;;;;5052503;28;20473;-81
2023/09/01 12:17:18;;;;;;;4.47;2.90;;;;;;;;;;5051295;28;20495;-82
2023/09/01 12:19:46;;;;;;;3.43;2.47;;;;;;;;;;5051623;28;20446;-82
2023/09/01 12:22:14;;;;;;;3.60;2.60;;;;;;;;;;5052487;28;20917;-82
2023/09/01 12:24:50;;;;;;;3.77;3.03;;;;;;;;;;5052035;28;20469;-83
2023/09/01 12:27:19;;;;;;;3.90;3.40;;;;;;;;;;5053137;28;20498;-82
2023/09/01 12:29:46;;;;;;;3.80;2.83;;;;;;;;;;5052164;28;20445;-82
2023/09/01 12:32:13;;;;;;;2.97;2.33;;;;;;;;;;5052525;28;20466;-82
2023/09/01 12:34:41;;;;;;;3.57;2.47;;;;;;;;;;5052223;28;20480;-82
2023/09/01 12:37:08;;;;;;;3.80;2.60;;;;;;;;;;5052213;28;20473;-82
2023/09/01 12:39:36;;;;;;;2.90;2.13;;;;;;;;;;5052114;28;20445;-82
2023/09/01 12:42:03;;;;;;;4.13;2.50;;;;;;;;;;5051103;28;20488;-82
2023/09/01 12:44:32;;;;;;;3.80;2.53;;;;;;;;;;5052268;28;20872;-82
2023/09/01 12:46:59;;;;;;;3.33;2.37;;;;;;;;;;5052277;28;20472;-82
2023/09/01 12:49:27;;;;;;;3.50;2.63;;;;;;;;;;5051808;28;20879;-82
2023/09/01 12:51:54;;;;;;;3.33;2.40;;;;;;;;;;5047553;28;20450;-82
2023/09/01 12:54:21;;;;;;;5.43;2.60;;;;;;;;;;5051281;28;20775;-83
2023/09/01 12:56:48;;;;;;;3.67;2.63;;;;;;;;;;5041821;28;20521;-82
2023/09/01 12:59:16;;;;;;;4.77;2.60;;;;;;;;;;5067045;28;20449;-82
2023/09/01 13:01:44;;;;;;;3.50;2.20;;;;;;;;;;5051922;28;20446;-82
2023/09/01 13:04:12;;;;;;;4.00;2.80;;;;;;;;;;5044534;28;20484;-82
2023/09/01 13:06:39;;;;;;;3.40;2.50;;;;;;;;;;5050188;28;20502;-82
2023/09/01 13:09:07;;;;;;;3.00;2.40;;;;;;;;;;5051414;28;20453;-82
2023/09/01 13:11:35;;;;;;;3.10;2.37;;;;;;;;;;5049341;28;20461;-82
2023/09/01 13:14:02;;;;;;;2.93;2.63;;;;;;;;;;5051394;28;20485;-82
2023/09/01 13:16:30;;;;;;;4.07;2.93;;;;;;;;;;5048148;28;20450;-82
2023/09/01 13:18:59;;;;;;;3.60;2.93;;;;;;;;;;5048970;28;20457;-82
2023/09/01 13:21:26;;;;;;;3.20;2.50;;;;;;;;;;5051658;28;20528;-82
2023/09/01 13:23:53;;;;;;;3.23;2.37;;;;;;;;;;5051402;28;20512;-82
2023/09/01 13:26:21;;;;;;;3.43;2.93;;;;;;;;;;5047479;28;20882;-82
2023/09/01 13:28:48;;;;;;;3.33;2.20;;;;;;;;;;5049929;28;20760;-82
2023/09/01 13:31:17;;;;;;;3.60;2.90;;;;;;;;;;5049748;28;20937;-82
2023/09/01 13:33:44;;;;;;;4.73;2.80;;;;;;;;;;5049137;28;20457;-82
2023/09/01 13:36:13;;;;;;;5.07;3.00;;;;;;;;;;5046390;28;20486;-83
2023/09/01 13:38:40;;;;;;;5.80;2.63;;;;;;;;;;5050616;28;20486;-82
2023/09/01 13:41:07;;;;;;;3.17;2.50;;;;;;;;;;5051176;28;20480;-82
2023/09/01 13:43:36;;;;;;;2.83;2.40;;;;;;;;;;5049112;28;20505;-82
2023/09/01 13:46:22;;;;;;;3.20;2.33;;;;;;;;;;5048767;28;20441;-82
2023/09/01 13:48:52;;;;;;;4.70;3.13;;;;;;;;;;5049884;28;20453;-82
2023/09/01 13:51:22;;;;;;;5.17;3.07;;;;;;;;;;5049043;28;20473;-82
2023/09/01 13:53:49;;;;;;;4.70;2.23;;;;;;;;;;5039289;28;20578;-82
2023/09/01 13:56:16;;;;;;;3.87;2.70;;;;;;;;;;5037868;28;20458;-82
2023/09/01 13:58:43;;;;;;;4.03;2.37;;;;;;;;;;5041505;28;20549;-82
2023/09/01 14:01:11;;;;;;;3.23;2.13;;;;;;;;;;5045974;28;20454;-82
2023/09/01 14:03:40;;;;;;;2.90;2.43;;;;;;;;;;5039628;28;20478;-82
2023/09/01 14:06:07;;;;;;;3.43;2.03;;;;;;;;;;5048684;28;21026;-82
2023/09/01 14:08:36;;;;;;;3.43;2.50;;;;;;;;;;5042590;28;20451;-82
2023/09/01 14:11:03;;;;;;;3.43;2.20;;;;;;;;;;5047564;28;20469;-82
2023/09/01 14:13:31;;;;;;;5.03;2.97;;;;;;;;;;5042406;28;20523;-82
2023/09/01 14:15:59;;;;;;;3.60;2.50;;;;;;;;;;5044592;28;20507;-82
2023/09/01 14:18:27;;;;;;;4.37;2.80;;;;;;;;;;5045694;28;20450;-82
2023/09/01 14:20:55;;;;;;;3.40;2.80;;;;;;;;;;5054695;28;20469;-82
2023/09/01 14:23:22;;;;;;;3.40;3.00;;;;;;;;;;5053393;28;20925;-82
2023/09/01 14:25:51;;;;;;;3.30;2.63;;;;;;;;;;5054021;28;20507;-82
2023/09/01 14:28:19;;;;;;;3.57;3.20;;;;;;;;;;5049630;28;20952;-81
2023/09/01 14:30:46;;;;;;;4.10;3.70;;;;;;;;;;5056063;28;20453;-82
2023/09/01 14:33:14;;;;;;;3.50;3.13;;;;;;;;;;5064551;28;20457;-81
2023/09/01 14:35:41;;;;;;;4.10;3.07;;;;;;;;;;5060477;28;20442;-82
2023/09/01 14:38:09;;;;;;;3.43;2.70;;;;;;;;;;5054290;28;20499;-82
2023/09/01 14:40:38;;;;;;;4.13;2.97;;;;;;;;;;5050875;28;20461;-82
2023/09/01 14:43:07;;;;;;;5.37;3.03;;;;;;;;;;5051937;28;20977;-82
2023/09/01 14:45:37;;;;;;;5.10;2.73;;;;;;;;;;5054031;28;20445;-82
2023/09/01 14:48:04;;;;;;;3.60;2.80;;;;;;;;;;5056892;28;20950;-83
2023/09/01 14:50:32;;;;;;;3.90;3.10;;;;;;;;;;5071662;28;20466;-82